sensor_id;sensor_type;location;lat;lon;timestamp;temperature;humidity
2955;DHT22;1487;51.470;6.938;2022-09-20T00:01:41;9.60;99.90
2955;DHT22;1487;51.470;6.938;2022-09-20T00:04:08;9.80;99.90
2955;DHT22;1487;51.470;6.938;2022-09-20T00:06:35;9.90;99.90
2955;DHT22;1487;51.470;6.938;2022-09-20T00:09:04;9.90;99.90
2955;DHT22;1487;51.470;6.938;2022-09-20T00:11:33;10.00;99.90
2955;DHT22;1487;51.470;6.938;2022-09-20T00:14:01;10.00;99.90
2955;DHT22;1487;51.470;6.938;2022-09-20T00:16:32;10.10;99.90
2955;DHT22;1487;51.470;6.938;2022-09-20T00:19:01;10.20;99.90
2955;DHT22;1487;51.470;6.938;2022-09-20T00:21:29;10.20;99.90
2955;DHT22;1487;51.470;6.938;2022-09-20T00:23:56;10.10;99.90
2955;DHT22;1487;51.470;6.938;2022-09-20T00:26:25;10.10;99.90
2955;DHT22;1487;51.470;6.938;2022-09-20T00:28:52;10.00;99.90
2955;DHT22;1487;51.470;6.938;2022-09-20T00:31:19;10.00;99.90
2955;DHT22;1487;51.470;6.938;2022-09-20T00:33:46;10.00;99.90
2955;DHT22;1487;51.470;6.938;2022-09-20T00:36:30;9.80;99.90
2955;DHT22;1487;51.470;6.938;2022-09-20T00:38:58;9.70;99.90
2955;DHT22;1487;51.470;6.938;2022-09-20T00:41:28;9.70;99.90
2955;DHT22;1487;51.470;6.938;2022-09-20T00:43:57;9.70;99.90
2955;DHT22;1487;51.470;6.938;2022-09-20T00:46:27;9.70;99.90
2955;DHT22;1487;51.470;6.938;2022-09-20T00:48:59;9.60;99.90
2955;DHT22;1487;51.470;6.938;2022-09-20T00:51:28;9.60;99.90
2955;DHT22;1487;51.470;6.938;2022-09-20T00:53:59;9.50;99.90
2955;DHT22;1487;51.470;6.938;2022-09-20T00:56:30;9.40;99.90
2955;DHT22;1487;51.470;6.938;2022-09-20T00:59:14;9.40;99.90
2955;DHT22;1487;51.470;6.938;2022-09-20T01:01:43;9.30;99.90
2955;DHT22;1487;51.470;6.938;2022-09-20T01:04:10;9.30;99.90
2955;DHT22;1487;51.470;6.938;2022-09-20T01:06:39;9.30;99.90
2955;DHT22;1487;51.470;6.938;2022-09-20T01:09:07;9.30;99.90
2955;DHT22;1487;51.470;6.938;2022-09-20T01:11:35;9.20;99.90
2955;DHT22;1487;51.470;6.938;2022-09-20T01:14:03;9.20;99.90
2955;DHT22;1487;51.470;6.938;2022-09-20T01:16:30;9.20;99.90
2955;DHT22;1487;51.470;6.938;2022-09-20T01:19:00;9.10;99.90
2955;DHT22;1487;51.470;6.938;2022-09-20T01:21:28;9.10;99.90
2955;DHT22;1487;51.470;6.938;2022-09-20T01:24:00;9.10;99.90
2955;DHT22;1487;51.470;6.938;2022-09-20T01:26:57;9.20;99.90
2955;DHT22;1487;51.470;6.938;2022-09-20T01:29:44;9.20;99.90
2955;DHT22;1487;51.470;6.938;2022-09-20T01:32:19;9.20;99.90
2955;DHT22;1487;51.470;6.938;2022-09-20T01:34:51;9.20;99.90
2955;DHT22;1487;51.470;6.938;2022-09-20T01:37:23;9.10;99.90
2955;DHT22;1487;51.470;6.938;2022-09-20T01:39:59;9.00;99.90
2955;DHT22;1487;51.470;6.938;2022-09-20T01:42:32;9.00;99.90
2955;DHT22;1487;51.470;6.938;2022-09-20T01:45:09;9.00;99.90
2955;DHT22;1487;51.470;6.938;2022-09-20T01:47:44;9.00;99.90
2955;DHT22;1487;51.470;6.938;2022-09-20T01:50:22;9.00;99.90
2955;DHT22;1487;51.470;6.938;2022-09-20T02:02:28;9.30;99.90
2955;DHT22;1487;51.470;6.938;2022-09-20T02:05:07;9.30;99.90
2955;DHT22;1487;51.470;6.938;2022-09-20T02:11:02;9.50;99.90
2955;DHT22;1487;51.470;6.938;2022-09-20T02:13:31;9.60;99.90
2955;DHT22;1487;51.470;6.938;2022-09-20T02:16:20;9.50;99.90
2955;DHT22;1487;51.470;6.938;2022-09-20T02:19:11;9.40;99.90
2955;DHT22;1487;51.470;6.938;2022-09-20T02:21:49;9.50;99.90
2955;DHT22;1487;51.470;6.938;2022-09-20T02:24:25;9.50;99.90
2955;DHT22;1487;51.470;6.938;2022-09-20T02:27:05;9.50;99.90
2955;DHT22;1487;51.470;6.938;2022-09-20T02:29:40;9.50;99.90
2955;DHT22;1487;51.470;6.938;2022-09-20T02:32:33;9.50;99.90
2955;DHT22;1487;51.470;6.938;2022-09-20T02:35:39;9.50;99.90
2955;DHT22;1487;51.470;6.938;2022-09-20T02:38:20;9.50;99.90
2955;DHT22;1487;51.470;6.938;2022-09-20T02:43:48;9.50;99.90
2955;DHT22;1487;51.470;6.938;2022-09-20T02:46:24;9.50;99.90
2955;DHT22;1487;51.470;6.938;2022-09-20T02:49:07;9.50;99.90
2955;DHT22;1487;51.470;6.938;2022-09-20T02:51:41;9.50;99.90
2955;DHT22;1487;51.470;6.938;2022-09-20T02:54:17;9.50;99.90
2955;DHT22;1487;51.470;6.938;2022-09-20T02:56:57;9.50;99.90
2955;DHT22;1487;51.470;6.938;2022-09-20T02:59:32;9.40;99.90
2955;DHT22;1487;51.470;6.938;2022-09-20T03:02:08;9.50;99.90
2955;DHT22;1487;51.470;6.938;2022-09-20T03:04:47;9.50;99.90
2955;DHT22;1487;51.470;6.938;2022-09-20T03:07:28;9.50;99.90
2955;DHT22;1487;51.470;6.938;2022-09-20T03:10:07;9.50;99.90
2955;DHT22;1487;51.470;6.938;2022-09-20T03:12:48;9.60;99.90
2955;DHT22;1487;51.470;6.938;2022-09-20T03:15:27;9.70;99.90
2955;DHT22;1487;51.470;6.938;2022-09-20T03:18:03;9.70;99.90
2955;DHT22;1487;51.470;6.938;2022-09-20T03:20:37;9.70;99.90
2955;DHT22;1487;51.470;6.938;2022-09-20T03:23:16;9.70;99.90
2955;DHT22;1487;51.470;6.938;2022-09-20T03:25:53;9.70;99.90
2955;DHT22;1487;51.470;6.938;2022-09-20T03:28:37;9.70;99.90
2955;DHT22;1487;51.470;6.938;2022-09-20T03:31:16;9.70;99.90
2955;DHT22;1487;51.470;6.938;2022-09-20T03:33:52;9.80;99.90
2955;DHT22;1487;51.470;6.938;2022-09-20T03:36:40;9.80;99.90
2955;DHT22;1487;51.470;6.938;2022-09-20T03:39:40;9.80;99.90
2955;DHT22;1487;51.470;6.938;2022-09-20T03:42:14;9.80;99.90
2955;DHT22;1487;51.470;6.938;2022-09-20T03:44:51;9.80;99.90
2955;DHT22;1487;51.470;6.938;2022-09-20T03:47:30;9.80;99.90
2955;DHT22;1487;51.470;6.938;2022-09-20T03:50:21;9.90;99.90
2955;DHT22;1487;51.470;6.938;2022-09-20T03:53:10;10.00;99.90
2955;DHT22;1487;51.470;6.938;2022-09-20T03:56:20;10.10;99.90
2955;DHT22;1487;51.470;6.938;2022-09-20T03:59:09;10.10;99.90
2955;DHT22;1487;51.470;6.938;2022-09-20T04:01:54;10.20;99.90
2955;DHT22;1487;51.470;6.938;2022-09-20T04:04:27;10.20;99.90
2955;DHT22;1487;51.470;6.938;2022-09-20T04:07:12;10.20;99.90
2955;DHT22;1487;51.470;6.938;2022-09-20T04:10:00;10.30;99.90
2955;DHT22;1487;51.470;6.938;2022-09-20T04:12:38;10.30;99.90
2955;DHT22;1487;51.470;6.938;2022-09-20T04:15:18;10.40;99.90
2955;DHT22;1487;51.470;6.938;2022-09-20T04:17:53;10.40;99.90
2955;DHT22;1487;51.470;6.938;2022-09-20T04:20:29;10.40;99.90
2955;DHT22;1487;51.470;6.938;2022-09-20T04:23:01;10.40;99.90
2955;DHT22;1487;51.470;6.938;2022-09-20T04:25:36;10.40;99.90
2955;DHT22;1487;51.470;6.938;2022-09-20T04:28:13;10.50;99.90
2955;DHT22;1487;51.470;6.938;2022-09-20T04:30:40;10.50;99.90
2955;DHT22;1487;51.470;6.938;2022-09-20T04:33:14;10.50;99.90
2955;DHT22;1487;51.470;6.938;2022-09-20T04:35:49;10.50;99.90
2955;DHT22;1487;51.470;6.938;2022-09-20T04:38:38;10.60;99.90
2955;DHT22;1487;51.470;6.938;2022-09-20T04:41:18;10.60;99.90
2955;DHT22;1487;51.470;6.938;2022-09-20T04:44:30;10.60;99.90
2955;DHT22;1487;51.470;6.938;2022-09-20T04:47:26;10.60;99.90
2955;DHT22;1487;51.470;6.938;2022-09-20T04:50:40;10.60;99.90
2955;DHT22;1487;51.470;6.938;2022-09-20T04:56:17;10.60;99.90
2955;DHT22;1487;51.470;6.938;2022-09-20T04:58:58;10.70;99.90
2955;DHT22;1487;51.470;6.938;2022-09-20T05:02:04;10.80;99.90
2955;DHT22;1487;51.470;6.938;2022-09-20T05:13:45;10.80;99.90
2955;DHT22;1487;51.470;6.938;2022-09-20T05:16:20;10.80;99.90
2955;DHT22;1487;51.470;6.938;2022-09-20T05:19:08;10.80;99.90
2955;DHT22;1487;51.470;6.938;2022-09-20T05:21:51;10.80;99.90
2955;DHT22;1487;51.470;6.938;2022-09-20T05:24:45;10.80;99.90
2955;DHT22;1487;51.470;6.938;2022-09-20T05:27:28;10.90;99.90
2955;DHT22;1487;51.470;6.938;2022-09-20T05:30:03;10.80;99.90
2955;DHT22;1487;51.470;6.938;2022-09-20T05:32:38;10.90;99.90
2955;DHT22;1487;51.470;6.938;2022-09-20T05:35:16;10.90;99.90
2955;DHT22;1487;51.470;6.938;2022-09-20T05:37:49;10.90;99.90
2955;DHT22;1487;51.470;6.938;2022-09-20T05:40:29;10.90;99.90
2955;DHT22;1487;51.470;6.938;2022-09-20T05:43:04;10.90;99.90
2955;DHT22;1487;51.470;6.938;2022-09-20T05:45:57;10.90;99.90
2955;DHT22;1487;51.470;6.938;2022-09-20T05:48:36;11.00;99.90
2955;DHT22;1487;51.470;6.938;2022-09-20T05:51:12;11.00;99.90
2955;DHT22;1487;51.470;6.938;2022-09-20T05:54:00;11.00;99.90
2955;DHT22;1487;51.470;6.938;2022-09-20T05:56:36;11.10;99.90
2955;DHT22;1487;51.470;6.938;2022-09-20T05:59:20;11.10;99.90
2955;DHT22;1487;51.470;6.938;2022-09-20T06:02:09;11.20;99.90
2955;DHT22;1487;51.470;6.938;2022-09-20T06:04:46;11.30;99.90
2955;DHT22;1487;51.470;6.938;2022-09-20T06:07:24;11.40;99.90
2955;DHT22;1487;51.470;6.938;2022-09-20T06:10:16;11.50;99.90
2955;DHT22;1487;51.470;6.938;2022-09-20T06:12:51;11.60;99.90
2955;DHT22;1487;51.470;6.938;2022-09-20T06:15:25;11.70;99.90
2955;DHT22;1487;51.470;6.938;2022-09-20T06:17:58;11.90;99.90
2955;DHT22;1487;51.470;6.938;2022-09-20T06:20:34;12.20;99.90
2955;DHT22;1487;51.470;6.938;2022-09-20T06:23:04;12.30;99.90
2955;DHT22;1487;51.470;6.938;2022-09-20T06:25:36;12.50;99.90
2955;DHT22;1487;51.470;6.938;2022-09-20T06:28:12;12.60;99.90
2955;DHT22;1487;51.470;6.938;2022-09-20T06:30:42;12.70;99.90
2955;DHT22;1487;51.470;6.938;2022-09-20T06:33:13;12.90;99.90
2955;DHT22;1487;51.470;6.938;2022-09-20T06:35:44;13.50;99.90
2955;DHT22;1487;51.470;6.938;2022-09-20T06:38:30;14.20;99.90
2955;DHT22;1487;51.470;6.938;2022-09-20T06:41:17;14.40;99.90
2955;DHT22;1487;51.470;6.938;2022-09-20T06:43:53;14.20;99.90
2955;DHT22;1487;51.470;6.938;2022-09-20T06:46:24;14.00;99.90
2955;DHT22;1487;51.470;6.938;2022-09-20T06:48:53;13.80;99.90
2955;DHT22;1487;51.470;6.938;2022-09-20T06:51:20;13.70;99.90
2955;DHT22;1487;51.470;6.938;2022-09-20T06:53:49;13.60;99.90
2955;DHT22;1487;51.470;6.938;2022-09-20T06:56:18;13.60;99.90
2955;DHT22;1487;51.470;6.938;2022-09-20T06:58:45;13.60;99.90
2955;DHT22;1487;51.470;6.938;2022-09-20T07:01:12;13.70;99.90
2955;DHT22;1487;51.470;6.938;2022-09-20T07:03:40;13.70;99.90
2955;DHT22;1487;51.470;6.938;2022-09-20T07:06:07;13.70;99.90
2955;DHT22;1487;51.470;6.938;2022-09-20T07:08:34;13.80;99.90
2955;DHT22;1487;51.470;6.938;2022-09-20T07:11:07;13.90;99.90
2955;DHT22;1487;51.470;6.938;2022-09-20T07:13:35;14.00;99.90
2955;DHT22;1487;51.470;6.938;2022-09-20T07:16:03;14.00;99.90
2955;DHT22;1487;51.470;6.938;2022-09-20T07:18:31;14.00;99.90
2955;DHT22;1487;51.470;6.938;2022-09-20T07:20:59;14.10;99.90
2955;DHT22;1487;51.470;6.938;2022-09-20T07:23:26;14.20;99.90
2955;DHT22;1487;51.470;6.938;2022-09-20T07:25:54;14.10;99.90
2955;DHT22;1487;51.470;6.938;2022-09-20T07:28:24;14.10;99.90
2955;DHT22;1487;51.470;6.938;2022-09-20T07:30:51;14.10;99.90
2955;DHT22;1487;51.470;6.938;2022-09-20T07:33:17;14.20;99.90
2955;DHT22;1487;51.470;6.938;2022-09-20T07:35:47;14.20;99.90
2955;DHT22;1487;51.470;6.938;2022-09-20T07:38:14;14.20;99.90
2955;DHT22;1487;51.470;6.938;2022-09-20T07:40:41;14.30;99.90
2955;DHT22;1487;51.470;6.938;2022-09-20T07:43:09;14.40;99.90
2955;DHT22;1487;51.470;6.938;2022-09-20T07:45:37;14.70;99.90
2955;DHT22;1487;51.470;6.938;2022-09-20T07:48:05;15.00;99.90
2955;DHT22;1487;51.470;6.938;2022-09-20T07:50:33;15.70;99.90
2955;DHT22;1487;51.470;6.938;2022-09-20T07:53:00;17.10;99.90
2955;DHT22;1487;51.470;6.938;2022-09-20T07:55:28;18.40;99.90
2955;DHT22;1487;51.470;6.938;2022-09-20T07:57:55;18.70;99.90
2955;DHT22;1487;51.470;6.938;2022-09-20T08:00:22;19.10;99.90
2955;DHT22;1487;51.470;6.938;2022-09-20T08:02:58;19.40;99.90
2955;DHT22;1487;51.470;6.938;2022-09-20T08:05:25;20.60;99.90
2955;DHT22;1487;51.470;6.938;2022-09-20T08:07:53;21.90;99.90
2955;DHT22;1487;51.470;6.938;2022-09-20T08:10:20;22.50;99.90
2955;DHT22;1487;51.470;6.938;2022-09-20T08:12:48;22.50;99.90
2955;DHT22;1487;51.470;6.938;2022-09-20T08:15:15;22.40;99.90
2955;DHT22;1487;51.470;6.938;2022-09-20T08:17:46;22.00;99.90
2955;DHT22;1487;51.470;6.938;2022-09-20T08:20:14;21.60;99.90
2955;DHT22;1487;51.470;6.938;2022-09-20T08:22:41;20.70;99.90
2955;DHT22;1487;51.470;6.938;2022-09-20T08:25:09;19.90;99.90
2955;DHT22;1487;51.470;6.938;2022-09-20T08:27:36;20.00;99.90
2955;DHT22;1487;51.470;6.938;2022-09-20T08:30:03;19.90;99.90
2955;DHT22;1487;51.470;6.938;2022-09-20T08:32:31;19.70;99.90
2955;DHT22;1487;51.470;6.938;2022-09-20T08:34:58;19.50;99.90
2955;DHT22;1487;51.470;6.938;2022-09-20T08:37:26;18.70;99.90
2955;DHT22;1487;51.470;6.938;2022-09-20T08:39:53;18.30;99.90
2955;DHT22;1487;51.470;6.938;2022-09-20T08:42:25;18.20;99.90
2955;DHT22;1487;51.470;6.938;2022-09-20T08:44:56;17.80;99.90
2955;DHT22;1487;51.470;6.938;2022-09-20T08:47:25;17.60;99.90
2955;DHT22;1487;51.470;6.938;2022-09-20T08:49:53;17.50;99.90
2955;DHT22;1487;51.470;6.938;2022-09-20T08:52:28;18.00;99.90
2955;DHT22;1487;51.470;6.938;2022-09-20T08:54:58;19.00;99.90
2955;DHT22;1487;51.470;6.938;2022-09-20T08:57:30;20.20;99.90
2955;DHT22;1487;51.470;6.938;2022-09-20T08:59:58;21.20;99.90
2955;DHT22;1487;51.470;6.938;2022-09-20T09:02:28;22.10;99.90
2955;DHT22;1487;51.470;6.938;2022-09-20T09:04:56;22.60;99.90
2955;DHT22;1487;51.470;6.938;2022-09-20T09:07:24;22.50;99.90
2955;DHT22;1487;51.470;6.938;2022-09-20T09:09:53;22.30;99.90
2955;DHT22;1487;51.470;6.938;2022-09-20T09:12:23;21.90;99.90
2955;DHT22;1487;51.470;6.938;2022-09-20T09:14:51;21.50;99.90
2955;DHT22;1487;51.470;6.938;2022-09-20T09:17:22;21.00;99.90
2955;DHT22;1487;51.470;6.938;2022-09-20T09:19:51;20.80;99.90
2955;DHT22;1487;51.470;6.938;2022-09-20T09:22:20;20.40;99.90
2955;DHT22;1487;51.470;6.938;2022-09-20T09:27:56;19.40;99.90
2955;DHT22;1487;51.470;6.938;2022-09-20T09:30:25;19.00;99.90
2955;DHT22;1487;51.470;6.938;2022-09-20T09:33:14;18.90;99.90
2955;DHT22;1487;51.470;6.938;2022-09-20T09:35:41;18.80;99.90
2955;DHT22;1487;51.470;6.938;2022-09-20T09:38:17;18.80;99.90
2955;DHT22;1487;51.470;6.938;2022-09-20T09:40:49;18.80;99.90
2955;DHT22;1487;51.470;6.938;2022-09-20T09:43:21;18.80;99.90
2955;DHT22;1487;51.470;6.938;2022-09-20T09:45:52;18.80;99.90
2955;DHT22;1487;51.470;6.938;2022-09-20T09:48:21;18.50;99.90
2955;DHT22;1487;51.470;6.938;2022-09-20T09:50:49;18.10;99.90
2955;DHT22;1487;51.470;6.938;2022-09-20T09:53:21;17.70;99.90
2955;DHT22;1487;51.470;6.938;2022-09-20T09:59:18;17.20;99.90
2955;DHT22;1487;51.470;6.938;2022-09-20T10:01:52;16.90;99.90
2955;DHT22;1487;51.470;6.938;2022-09-20T10:04:24;16.70;99.90
2955;DHT22;1487;51.470;6.938;2022-09-20T10:07:00;16.50;99.90
2955;DHT22;1487;51.470;6.938;2022-09-20T10:09:48;16.50;99.90
2955;DHT22;1487;51.470;6.938;2022-09-20T10:12:27;16.40;99.90
2955;DHT22;1487;51.470;6.938;2022-09-20T10:15:08;16.20;99.90
2955;DHT22;1487;51.470;6.938;2022-09-20T10:17:46;16.10;99.90
2955;DHT22;1487;51.470;6.938;2022-09-20T10:20:29;15.90;99.90
2955;DHT22;1487;51.470;6.938;2022-09-20T10:23:06;15.90;99.90
2955;DHT22;1487;51.470;6.938;2022-09-20T10:25:40;15.50;99.90
2955;DHT22;1487;51.470;6.938;2022-09-20T10:28:20;15.40;99.90
2955;DHT22;1487;51.470;6.938;2022-09-20T10:30:56;15.40;99.90
2955;DHT22;1487;51.470;6.938;2022-09-20T10:33:33;15.40;99.90
2955;DHT22;1487;51.470;6.938;2022-09-20T10:36:15;15.40;99.90
2955;DHT22;1487;51.470;6.938;2022-09-20T10:38:49;15.50;99.90
2955;DHT22;1487;51.470;6.938;2022-09-20T10:41:36;15.80;99.90
2955;DHT22;1487;51.470;6.938;2022-09-20T10:44:38;16.80;99.90
2955;DHT22;1487;51.470;6.938;2022-09-20T10:47:13;18.00;99.90
2955;DHT22;1487;51.470;6.938;2022-09-20T10:49:42;18.80;99.90
2955;DHT22;1487;51.470;6.938;2022-09-20T10:52:48;19.20;99.90
2955;DHT22;1487;51.470;6.938;2022-09-20T10:55:26;20.10;99.90
2955;DHT22;1487;51.470;6.938;2022-09-20T10:58:28;20.90;99.90
2955;DHT22;1487;51.470;6.938;2022-09-20T11:01:00;19.80;99.90
2955;DHT22;1487;51.470;6.938;2022-09-20T11:03:52;19.30;99.90
2955;DHT22;1487;51.470;6.938;2022-09-20T11:06:27;19.20;99.90
2955;DHT22;1487;51.470;6.938;2022-09-20T11:08:59;19.10;99.90
2955;DHT22;1487;51.470;6.938;2022-09-20T11:11:30;19.30;99.90
2955;DHT22;1487;51.470;6.938;2022-09-20T11:14:02;19.30;99.90
2955;DHT22;1487;51.470;6.938;2022-09-20T11:16:35;19.40;99.90
2955;DHT22;1487;51.470;6.938;2022-09-20T11:19:16;19.30;99.90
2955;DHT22;1487;51.470;6.938;2022-09-20T11:21:48;19.00;99.90
2955;DHT22;1487;51.470;6.938;2022-09-20T11:24:24;19.00;99.90
2955;DHT22;1487;51.470;6.938;2022-09-20T11:26:55;18.70;99.90
2955;DHT22;1487;51.470;6.938;2022-09-20T11:29:26;18.70;99.90
2955;DHT22;1487;51.470;6.938;2022-09-20T11:32:00;18.30;99.90
2955;DHT22;1487;51.470;6.938;2022-09-20T11:34:32;18.70;99.90
2955;DHT22;1487;51.470;6.938;2022-09-20T11:37:02;19.00;99.90
2955;DHT22;1487;51.470;6.938;2022-09-20T11:39:34;19.30;99.90
2955;DHT22;1487;51.470;6.938;2022-09-20T11:42:06;19.40;99.90
2955;DHT22;1487;51.470;6.938;2022-09-20T11:44:39;19.50;99.90
2955;DHT22;1487;51.470;6.938;2022-09-20T11:47:12;19.70;99.90
2955;DHT22;1487;51.470;6.938;2022-09-20T11:49:52;19.90;99.90
2955;DHT22;1487;51.470;6.938;2022-09-20T11:52:30;20.10;99.90
2955;DHT22;1487;51.470;6.938;2022-09-20T11:55:19;20.50;99.90
2955;DHT22;1487;51.470;6.938;2022-09-20T11:58:02;21.50;99.90
2955;DHT22;1487;51.470;6.938;2022-09-20T12:00:31;22.20;99.20
2955;DHT22;1487;51.470;6.938;2022-09-20T12:03:00;23.10;93.60
2955;DHT22;1487;51.470;6.938;2022-09-20T12:05:33;23.60;91.30
2955;DHT22;1487;51.470;6.938;2022-09-20T12:08:05;24.00;92.10
2955;DHT22;1487;51.470;6.938;2022-09-20T12:10:35;23.80;85.70
2955;DHT22;1487;51.470;6.938;2022-09-20T12:13:04;24.00;85.50
2955;DHT22;1487;51.470;6.938;2022-09-20T12:15:34;24.70;87.80
2955;DHT22;1487;51.470;6.938;2022-09-20T12:18:29;26.20;83.10
2955;DHT22;1487;51.470;6.938;2022-09-20T12:21:17;26.30;71.80
2955;DHT22;1487;51.470;6.938;2022-09-20T12:24:15;26.70;73.90
2955;DHT22;1487;51.470;6.938;2022-09-20T12:26:47;26.60;65.10
2955;DHT22;1487;51.470;6.938;2022-09-20T12:32:44;26.40;68.70
2955;DHT22;1487;51.470;6.938;2022-09-20T12:38:47;24.00;67.30
2955;DHT22;1487;51.470;6.938;2022-09-20T12:41:17;23.20;70.90
2955;DHT22;1487;51.470;6.938;2022-09-20T12:43:51;23.10;70.80
2955;DHT22;1487;51.470;6.938;2022-09-20T12:46:22;22.50;71.20
2955;DHT22;1487;51.470;6.938;2022-09-20T12:48:50;22.50;76.70
2955;DHT22;1487;51.470;6.938;2022-09-20T12:51:31;22.10;73.80
2955;DHT22;1487;51.470;6.938;2022-09-20T12:54:17;21.60;77.90
2955;DHT22;1487;51.470;6.938;2022-09-20T12:56:44;21.30;79.70
2955;DHT22;1487;51.470;6.938;2022-09-20T12:59:21;21.30;83.90
2955;DHT22;1487;51.470;6.938;2022-09-20T13:01:49;21.30;82.00
2955;DHT22;1487;51.470;6.938;2022-09-20T13:04:38;21.70;79.60
2955;DHT22;1487;51.470;6.938;2022-09-20T13:10:38;22.50;77.80
2955;DHT22;1487;51.470;6.938;2022-09-20T13:13:26;22.80;79.80
2955;DHT22;1487;51.470;6.938;2022-09-20T13:15:54;22.80;79.10
2955;DHT22;1487;51.470;6.938;2022-09-20T13:18:23;23.10;81.50
2955;DHT22;1487;51.470;6.938;2022-09-20T13:20:53;23.40;75.60
2955;DHT22;1487;51.470;6.938;2022-09-20T13:23:24;24.40;74.50
2955;DHT22;1487;51.470;6.938;2022-09-20T13:25:54;25.10;72.00
2955;DHT22;1487;51.470;6.938;2022-09-20T13:28:31;25.80;69.80
2955;DHT22;1487;51.470;6.938;2022-09-20T13:31:27;26.70;70.30
2955;DHT22;1487;51.470;6.938;2022-09-20T13:34:03;27.10;63.00
2955;DHT22;1487;51.470;6.938;2022-09-20T13:36:38;25.50;66.10
2955;DHT22;1487;51.470;6.938;2022-09-20T13:39:05;25.00;68.00
2955;DHT22;1487;51.470;6.938;2022-09-20T13:41:34;24.50;67.80
2955;DHT22;1487;51.470;6.938;2022-09-20T13:44:02;23.80;67.80
2955;DHT22;1487;51.470;6.938;2022-09-20T13:46:31;23.30;72.50
2955;DHT22;1487;51.470;6.938;2022-09-20T13:49:12;22.50;70.60
2955;DHT22;1487;51.470;6.938;2022-09-20T13:51:39;22.00;74.20
2955;DHT22;1487;51.470;6.938;2022-09-20T13:54:33;21.20;75.60
2955;DHT22;1487;51.470;6.938;2022-09-20T13:57:04;20.80;79.50
2955;DHT22;1487;51.470;6.938;2022-09-20T13:59:34;20.40;81.00
2955;DHT22;1487;51.470;6.938;2022-09-20T14:02:02;20.10;80.80
2955;DHT22;1487;51.470;6.938;2022-09-20T14:04:30;19.90;82.30
2955;DHT22;1487;51.470;6.938;2022-09-20T14:06:58;19.20;83.60
2955;DHT22;1487;51.470;6.938;2022-09-20T14:09:28;19.10;90.40
2955;DHT22;1487;51.470;6.938;2022-09-20T14:11:57;18.60;93.70
2955;DHT22;1487;51.470;6.938;2022-09-20T14:14:26;18.30;93.80
2955;DHT22;1487;51.470;6.938;2022-09-20T14:16:55;18.30;99.90
2955;DHT22;1487;51.470;6.938;2022-09-20T14:19:28;18.20;99.90
2955;DHT22;1487;51.470;6.938;2022-09-20T14:21:58;18.10;99.90
2955;DHT22;1487;51.470;6.938;2022-09-20T14:24:30;17.60;99.90
2955;DHT22;1487;51.470;6.938;2022-09-20T14:27:11;17.50;99.90
2955;DHT22;1487;51.470;6.938;2022-09-20T14:29:41;17.30;99.90
2955;DHT22;1487;51.470;6.938;2022-09-20T14:32:20;17.00;99.90
2955;DHT22;1487;51.470;6.938;2022-09-20T14:34:57;16.60;99.90
2955;DHT22;1487;51.470;6.938;2022-09-20T14:37:27;16.40;99.90
2955;DHT22;1487;51.470;6.938;2022-09-20T14:39:56;16.20;99.90
2955;DHT22;1487;51.470;6.938;2022-09-20T14:42:30;16.00;99.90
2955;DHT22;1487;51.470;6.938;2022-09-20T14:45:01;15.90;99.90
2955;DHT22;1487;51.470;6.938;2022-09-20T14:47:35;15.80;99.90
2955;DHT22;1487;51.470;6.938;2022-09-20T14:50:03;15.70;99.90
2955;DHT22;1487;51.470;6.938;2022-09-20T14:52:35;15.70;99.90
2955;DHT22;1487;51.470;6.938;2022-09-20T14:55:16;15.70;99.90
2955;DHT22;1487;51.470;6.938;2022-09-20T14:57:46;15.70;99.90
2955;DHT22;1487;51.470;6.938;2022-09-20T15:00:16;15.90;99.90
2955;DHT22;1487;51.470;6.938;2022-09-20T15:02:44;16.00;99.90
2955;DHT22;1487;51.470;6.938;2022-09-20T15:05:20;16.10;99.90
2955;DHT22;1487;51.470;6.938;2022-09-20T15:07:51;16.20;99.90
2955;DHT22;1487;51.470;6.938;2022-09-20T15:10:18;16.40;99.90
2955;DHT22;1487;51.470;6.938;2022-09-20T15:12:45;16.40;99.90
2955;DHT22;1487;51.470;6.938;2022-09-20T15:15:16;16.60;99.90
2955;DHT22;1487;51.470;6.938;2022-09-20T15:17:44;16.80;99.90
2955;DHT22;1487;51.470;6.938;2022-09-20T15:20:16;16.60;99.90
2955;DHT22;1487;51.470;6.938;2022-09-20T15:22:43;16.80;99.90
2955;DHT22;1487;51.470;6.938;2022-09-20T15:25:14;17.00;99.90
2955;DHT22;1487;51.470;6.938;2022-09-20T15:27:42;17.10;99.90
2955;DHT22;1487;51.470;6.938;2022-09-20T15:30:14;17.10;99.90
2955;DHT22;1487;51.470;6.938;2022-09-20T15:32:42;17.20;99.90
2955;DHT22;1487;51.470;6.938;2022-09-20T15:35:10;17.20;99.90
2955;DHT22;1487;51.470;6.938;2022-09-20T15:37:38;17.10;99.90
2955;DHT22;1487;51.470;6.938;2022-09-20T15:40:06;17.10;99.90
2955;DHT22;1487;51.470;6.938;2022-09-20T15:42:33;16.90;99.90
2955;DHT22;1487;51.470;6.938;2022-09-20T15:45:05;16.90;99.90
2955;DHT22;1487;51.470;6.938;2022-09-20T15:47:35;17.00;99.90
2955;DHT22;1487;51.470;6.938;2022-09-20T15:50:03;16.90;99.90
2955;DHT22;1487;51.470;6.938;2022-09-20T15:52:32;17.00;99.90
2955;DHT22;1487;51.470;6.938;2022-09-20T15:54:59;17.00;99.90
2955;DHT22;1487;51.470;6.938;2022-09-20T15:57:28;17.00;99.90
2955;DHT22;1487;51.470;6.938;2022-09-20T15:59:55;17.00;99.90
2955;DHT22;1487;51.470;6.938;2022-09-20T16:02:22;16.90;99.90
2955;DHT22;1487;51.470;6.938;2022-09-20T16:04:50;16.80;99.90
2955;DHT22;1487;51.470;6.938;2022-09-20T16:07:20;16.60;99.90
2955;DHT22;1487;51.470;6.938;2022-09-20T16:09:50;16.60;99.90
2955;DHT22;1487;51.470;6.938;2022-09-20T16:12:17;16.50;99.90
2955;DHT22;1487;51.470;6.938;2022-09-20T16:14:44;16.40;99.90
2955;DHT22;1487;51.470;6.938;2022-09-20T16:17:11;16.40;99.90
2955;DHT22;1487;51.470;6.938;2022-09-20T16:19:38;16.20;99.90
2955;DHT22;1487;51.470;6.938;2022-09-20T16:22:06;15.80;99.90
2955;DHT22;1487;51.470;6.938;2022-09-20T16:24:34;15.80;99.90
2955;DHT22;1487;51.470;6.938;2022-09-20T16:27:03;15.80;99.90
2955;DHT22;1487;51.470;6.938;2022-09-20T16:29:31;15.70;99.90
2955;DHT22;1487;51.470;6.938;2022-09-20T16:32:01;15.80;99.90
2955;DHT22;1487;51.470;6.938;2022-09-20T16:34:31;15.70;99.90
2955;DHT22;1487;51.470;6.938;2022-09-20T16:36:59;15.60;99.90
2955;DHT22;1487;51.470;6.938;2022-09-20T16:39:29;15.50;99.90
2955;DHT22;1487;51.470;6.938;2022-09-20T16:41:57;15.50;99.90
2955;DHT22;1487;51.470;6.938;2022-09-20T16:44:28;15.50;99.90
2955;DHT22;1487;51.470;6.938;2022-09-20T16:46:55;15.50;99.90
2955;DHT22;1487;51.470;6.938;2022-09-20T16:49:21;15.50;99.90
2955;DHT22;1487;51.470;6.938;2022-09-20T16:51:51;15.40;99.90
2955;DHT22;1487;51.470;6.938;2022-09-20T16:54:18;15.30;99.90
2955;DHT22;1487;51.470;6.938;2022-09-20T16:56:48;15.20;99.90
2955;DHT22;1487;51.470;6.938;2022-09-20T16:59:17;15.20;99.90
2955;DHT22;1487;51.470;6.938;2022-09-20T17:01:46;15.10;99.90
2955;DHT22;1487;51.470;6.938;2022-09-20T17:04:14;15.00;99.90
2955;DHT22;1487;51.470;6.938;2022-09-20T17:06:44;15.00;99.90
2955;DHT22;1487;51.470;6.938;2022-09-20T17:09:12;14.80;99.90
2955;DHT22;1487;51.470;6.938;2022-09-20T17:11:40;14.80;99.90
2955;DHT22;1487;51.470;6.938;2022-09-20T17:14:10;14.80;99.90
2955;DHT22;1487;51.470;6.938;2022-09-20T17:16:39;14.70;99.90
2955;DHT22;1487;51.470;6.938;2022-09-20T17:19:08;14.60;99.90
2955;DHT22;1487;51.470;6.938;2022-09-20T17:21:37;14.50;99.90
2955;DHT22;1487;51.470;6.938;2022-09-20T17:24:05;14.40;99.90
2955;DHT22;1487;51.470;6.938;2022-09-20T17:26:34;14.30;99.90
2955;DHT22;1487;51.470;6.938;2022-09-20T17:29:04;14.10;99.90
2955;DHT22;1487;51.470;6.938;2022-09-20T17:31:34;14.00;99.90
2955;DHT22;1487;51.470;6.938;2022-09-20T17:34:01;13.90;99.90